createdAt,value
2023-04-02T00:00:32.940Z,3.41
2023-04-02T00:03:42.422Z,3.41
2023-04-02T00:06:54.227Z,3.48
2023-04-02T00:09:57.730Z,3.53
2023-04-02T00:13:31.347Z,3.44
2023-04-02T00:16:33.467Z,3.40
2023-04-02T00:20:07.222Z,3.47
2023-04-02T00:23:15.833Z,3.42
2023-04-02T00:26:34.064Z,3.32
2023-04-02T00:29:35.922Z,3.34
2023-04-02T00:32:40.685Z,3.31
2023-04-02T00:35:43.082Z,3.25
2023-04-02T00:38:46.723Z,3.24
2023-04-02T00:41:54.860Z,3.21
2023-04-02T00:44:58.963Z,3.25
2023-04-02T00:48:13.701Z,3.17
2023-04-02T00:51:46.804Z,3.19
2023-04-02T00:54:52.889Z,3.20
2023-04-02T00:57:57.866Z,3.28
2023-04-02T01:01:01.951Z,3.23
2023-04-02T01:04:05.728Z,3.17
2023-04-02T01:07:11.340Z,3.14
2023-04-02T01:10:26.476Z,3.11
2023-04-02T01:13:38.077Z,3.08
2023-04-02T01:17:34.153Z,3.06
2023-04-02T01:20:47.912Z,3.05
2023-04-02T01:24:08.389Z,3.05
2023-04-02T01:27:21.962Z,3.08
2023-04-02T01:30:24.304Z,3.06
2023-04-02T01:33:31.558Z,3.06
2023-04-02T01:36:52.217Z,2.95
2023-04-02T01:40:12.970Z,2.94
2023-04-02T01:43:47.496Z,2.91
2023-04-02T01:46:50.538Z,2.88
2023-04-02T01:49:57.315Z,2.89
2023-04-02T01:53:08.561Z,2.89
2023-04-02T01:56:11.457Z,2.87
2023-04-02T01:59:16.752Z,2.89
2023-04-02T02:02:21.847Z,2.86
2023-04-02T02:05:24.265Z,2.78
2023-04-02T02:08:59.694Z,2.82
2023-04-02T02:12:03.419Z,2.82
2023-04-02T02:15:19.289Z,2.83
2023-04-02T02:18:23.617Z,2.77
2023-04-02T02:21:47.557Z,2.81
2023-04-02T02:24:50.679Z,2.76
2023-04-02T02:28:16.279Z,2.73
2023-04-02T02:31:37.405Z,2.79
2023-04-02T02:35:19.617Z,2.81
2023-04-02T02:38:39.403Z,2.72
2023-04-02T02:41:56.978Z,2.78
2023-04-02T02:45:05.133Z,2.77
2023-04-02T02:48:16.455Z,2.73
2023-04-02T02:51:27.740Z,2.72
2023-04-02T02:54:31.532Z,2.72
2023-04-02T02:57:40.565Z,2.75
2023-04-02T03:00:43.421Z,2.79
2023-04-02T03:03:49.349Z,2.76
2023-04-02T03:06:53.665Z,2.69
2023-04-02T03:10:36.490Z,2.61
2023-04-02T03:13:40.354Z,2.64
2023-04-02T03:16:47.345Z,2.61
2023-04-02T03:20:12.899Z,2.61
2023-04-02T03:23:19.174Z,2.58
2023-04-02T03:26:52.726Z,2.57
2023-04-02T03:30:35.773Z,2.59
2023-04-02T03:33:42.548Z,2.55
2023-04-02T03:37:05.782Z,2.55
2023-04-02T03:40:34.102Z,2.56
2023-04-02T03:43:56.625Z,2.58
2023-04-02T03:47:04.739Z,2.65
2023-04-02T03:50:28.899Z,2.62
2023-04-02T03:53:34.035Z,2.55
2023-04-02T03:56:43.813Z,2.56
2023-04-02T04:00:05.177Z,2.60
2023-04-02T04:03:41.146Z,2.57
2023-04-02T04:06:46.527Z,2.62
2023-04-02T04:09:52.403Z,2.65
2023-04-02T04:12:57.404Z,2.61
2023-04-02T04:16:22.625Z,2.64
2023-04-02T04:19:40.801Z,2.65
2023-04-02T04:22:43.337Z,2.54
2023-04-02T04:25:59.615Z,2.61
2023-04-02T04:29:19.323Z,2.63
2023-04-02T04:32:27.695Z,2.54
2023-04-02T04:35:38.409Z,2.58
2023-04-02T04:38:55.137Z,2.53
2023-04-02T04:42:03.218Z,2.58
2023-04-02T04:45:37.836Z,2.57
2023-04-02T04:48:54.613Z,2.62
2023-04-02T04:52:07.753Z,2.61
2023-04-02T04:55:42.497Z,2.60
2023-04-02T04:59:12.926Z,2.59
2023-04-02T05:02:27.760Z,2.57
2023-04-02T05:05:33.789Z,2.59
2023-04-02T05:08:45.790Z,2.55
2023-04-02T05:11:59.939Z,2.59
2023-04-02T05:15:23.544Z,2.65
2023-04-02T05:18:38.288Z,2.62
2023-04-02T05:21:57.700Z,2.58
2023-04-02T05:25:13.276Z,2.55
2023-04-02T05:28:53.145Z,2.57
2023-04-02T05:32:09.197Z,2.63
2023-04-02T05:35:17.286Z,2.62
2023-04-02T05:38:26.692Z,2.66
2023-04-02T05:41:36.559Z,2.71
2023-04-02T05:44:49.507Z,2.80
2023-04-02T05:47:59.899Z,2.84
2023-04-02T05:51:11.608Z,2.87
2023-04-02T05:54:45.158Z,2.94
2023-04-02T05:58:13.550Z,2.96
2023-04-02T06:01:51.647Z,3.01
2023-04-02T06:05:07.403Z,2.99
2023-04-02T06:08:21.209Z,3.00
2023-04-02T06:11:32.208Z,3.03
2023-04-02T06:14:37.345Z,3.10
2023-04-02T06:17:53.294Z,3.16
2023-04-02T06:20:55.869Z,3.15
2023-04-02T06:24:02.554Z,3.21
2023-04-02T06:27:10.138Z,3.35
2023-04-02T06:30:27.225Z,3.32
2023-04-02T06:33:29.327Z,3.33
2023-04-02T06:36:32.616Z,3.35
2023-04-02T06:39:38.403Z,3.45
2023-04-02T06:42:42.437Z,3.53
2023-04-02T06:46:28.565Z,3.59
2023-04-02T06:49:34.261Z,3.60
2023-04-02T06:52:53.985Z,3.62
2023-04-02T06:56:20.328Z,3.63
2023-04-02T06:59:22.534Z,3.68
2023-04-02T07:02:37.807Z,3.67
2023-04-02T07:05:43.187Z,3.70
2023-04-02T07:08:46.065Z,3.71
2023-04-02T07:11:48.932Z,3.80
2023-04-02T07:14:53.684Z,3.90
2023-04-02T07:18:01.790Z,4.02
2023-04-02T07:21:03.838Z,4.13
2023-04-02T07:24:06.423Z,4.15
2023-04-02T07:27:14.806Z,4.14
2023-04-02T07:30:16.563Z,4.12
2023-04-02T07:33:22.188Z,4.18
2023-04-02T07:36:24.738Z,4.21
2023-04-02T07:39:26.603Z,4.19
2023-04-02T07:42:28.244Z,4.27
2023-04-02T07:45:30.156Z,4.36
2023-04-02T07:48:32.243Z,4.44
2023-04-02T07:51:33.917Z,4.41
2023-04-02T07:54:39.983Z,4.38
2023-04-02T07:57:49.414Z,4.42
2023-04-02T08:00:51.537Z,4.50
2023-04-02T08:03:57.835Z,4.53
2023-04-02T08:07:03.018Z,4.58
2023-04-02T08:10:06.060Z,4.67
2023-04-02T08:13:07.832Z,4.65
2023-04-02T08:16:10.178Z,4.74
2023-04-02T08:19:14.910Z,4.75
2023-04-02T08:22:16.896Z,4.81
2023-04-02T08:25:19.765Z,4.86
2023-04-02T08:28:22.502Z,4.91
2023-04-02T08:31:24.457Z,4.95
2023-04-02T08:34:27.538Z,4.92
2023-04-02T08:37:29.376Z,5.06
2023-04-02T08:40:41.779Z,5.21
2023-04-02T08:44:21.112Z,5.14
2023-04-02T08:47:25.962Z,5.21
2023-04-02T08:50:35.716Z,5.24
2023-04-02T08:53:42.263Z,5.32
2023-04-02T08:56:52.649Z,5.30
2023-04-02T09:00:13.814Z,5.28
2023-04-02T09:03:21.125Z,5.24
2023-04-02T09:06:23.346Z,5.29
2023-04-02T09:09:26.247Z,5.38
2023-04-02T09:12:30.936Z,5.42
2023-04-02T09:15:37.012Z,5.47
2023-04-02T09:18:40.177Z,5.47
2023-04-02T09:21:48.789Z,5.48
2023-04-02T09:24:55.585Z,5.50
2023-04-02T09:28:00.880Z,5.57
2023-04-02T09:31:30.017Z,5.60
2023-04-02T09:34:34.867Z,5.69
2023-04-02T09:37:37.443Z,5.89
2023-04-02T09:41:01.558Z,6.08
2023-04-02T09:44:30.341Z,6.32
2023-04-02T09:47:32.118Z,6.37
2023-04-02T09:50:34.799Z,6.42
2023-04-02T09:53:52.765Z,6.39
2023-04-02T09:57:01.232Z,6.36
2023-04-02T10:00:32.229Z,6.38
2023-04-02T10:03:43.704Z,6.43
2023-04-02T10:06:50.250Z,6.33
2023-04-02T10:10:02.001Z,6.26
2023-04-02T10:13:20.020Z,6.28
2023-04-02T10:16:34.039Z,6.53
2023-04-02T10:19:50.676Z,6.84
2023-04-02T10:22:52.447Z,6.95
2023-04-02T10:26:25.197Z,6.95
2023-04-02T10:30:02.530Z,6.92
2023-04-02T10:33:21.680Z,7.13
2023-04-02T10:36:30.577Z,7.20
2023-04-02T10:39:50.180Z,7.41
2023-04-02T10:43:34.643Z,7.64
2023-04-02T10:46:43.776Z,7.80
2023-04-02T10:50:04.336Z,7.95
2023-04-02T10:53:16.661Z,8.08
2023-04-02T10:56:18.662Z,8.14
2023-04-02T10:59:41.831Z,8.24
2023-04-02T11:03:13.711Z,8.30
2023-04-02T11:06:18.711Z,8.39
2023-04-02T11:09:25.419Z,8.62
2023-04-02T11:12:58.054Z,8.75
2023-04-02T11:15:59.883Z,8.90
2023-04-02T11:19:17.236Z,9.01
2023-04-02T11:22:26.071Z,9.14
2023-04-02T11:25:28.719Z,9.06
2023-04-02T11:28:34.069Z,9.11
2023-04-02T11:31:37.021Z,9.36
2023-04-02T11:34:43.771Z,9.33
2023-04-02T11:37:46.603Z,9.20
2023-04-02T11:40:59.115Z,9.24
2023-04-02T11:44:01.985Z,9.53
2023-04-02T11:47:27.339Z,9.76
2023-04-02T11:50:40.554Z,9.98
2023-04-02T11:53:43.210Z,10.22
2023-04-02T11:56:58.655Z,10.38
2023-04-02T12:00:21.028Z,10.44
2023-04-02T12:03:32.474Z,10.71
2023-04-02T12:07:12.843Z,10.80
2023-04-02T12:10:21.972Z,10.52
2023-04-02T12:13:42.095Z,10.12
2023-04-02T12:16:44.437Z,9.65
2023-04-02T12:19:49.078Z,9.24
2023-04-02T12:22:54.166Z,8.77
2023-04-02T12:26:06.627Z,8.53
2023-04-02T12:29:22.094Z,8.23
2023-04-02T12:32:31.618Z,8.00
2023-04-02T12:35:36.380Z,8.18
2023-04-02T12:38:58.316Z,8.34
2023-04-02T12:42:00.123Z,8.63
2023-04-02T12:45:03.841Z,9.15
2023-04-02T12:48:07.007Z,9.20
2023-04-02T12:51:10.783Z,9.42
2023-04-02T12:54:17.728Z,9.86
2023-04-02T12:57:26.487Z,10.24
2023-04-02T13:00:31.105Z,10.77
2023-04-02T13:03:33.883Z,11.42
2023-04-02T13:06:36.719Z,11.45
2023-04-02T13:09:46.989Z,11.65
2023-04-02T13:12:49.229Z,11.99
2023-04-02T13:16:02.876Z,12.47
2023-04-02T13:19:23.546Z,12.83
2023-04-02T13:22:34.479Z,12.50
2023-04-02T13:25:37.120Z,12.27
2023-04-02T13:28:39.096Z,12.01
2023-04-02T13:31:41.668Z,11.81
2023-04-02T13:34:43.393Z,11.41
2023-04-02T13:37:46.298Z,10.97
2023-04-02T13:40:48.377Z,10.69
2023-04-02T13:44:00.497Z,10.45
2023-04-02T13:47:02.209Z,10.23
2023-04-02T13:50:04.218Z,9.99
2023-04-02T13:53:10.636Z,9.72
2023-04-02T13:56:12.772Z,9.40
2023-04-02T13:59:14.898Z,9.41
2023-04-02T14:02:22.240Z,9.43
2023-04-02T14:05:42.737Z,9.98
2023-04-02T14:08:52.015Z,10.55
2023-04-02T14:12:03.593Z,10.84
2023-04-02T14:15:39.810Z,11.29
2023-04-02T14:18:59.864Z,11.78
2023-04-02T14:22:36.091Z,12.66
2023-04-02T14:26:11.916Z,12.98
2023-04-02T14:29:42.668Z,11.83
2023-04-02T14:33:05.548Z,11.42
2023-04-02T14:36:14.591Z,11.80
2023-04-02T14:39:32.746Z,12.54
2023-04-02T14:42:58.591Z,12.57
2023-04-02T14:46:04.127Z,11.91
2023-04-02T14:49:26.926Z,11.30
2023-04-02T14:52:33.742Z,10.84
2023-04-02T14:55:52.082Z,10.24
2023-04-02T14:59:30.791Z,9.69
2023-04-02T15:02:51.511Z,9.23
2023-04-02T15:06:03.620Z,9.21
2023-04-02T15:09:13.765Z,9.82
2023-04-02T15:12:23.060Z,10.42
2023-04-02T15:15:49.425Z,10.98
2023-04-02T15:19:01.535Z,11.61
2023-04-02T15:22:27.612Z,12.11
2023-04-02T15:25:42.698Z,11.90
2023-04-02T15:28:47.821Z,11.36
2023-04-02T15:31:52.058Z,10.83
2023-04-02T15:35:33.817Z,10.24
2023-04-02T15:38:44.833Z,10.13
2023-04-02T15:42:05.411Z,10.49
2023-04-02T15:45:07.597Z,10.96
2023-04-02T15:48:38.187Z,10.89
2023-04-02T15:52:17.238Z,10.41
2023-04-02T15:55:41.198Z,10.28
2023-04-02T15:59:09.669Z,10.08
2023-04-02T16:02:39.703Z,9.71
2023-04-02T16:05:58.752Z,9.84
2023-04-02T16:09:27.147Z,9.95
2023-04-02T16:12:29.756Z,9.92
2023-04-02T16:15:40.442Z,9.90
2023-04-02T16:18:59.154Z,10.00
2023-04-02T16:22:27.594Z,10.09
2023-04-02T16:25:39.011Z,9.84
2023-04-02T16:28:52.849Z,9.65
2023-04-02T16:32:32.019Z,9.35
2023-04-02T16:35:57.478Z,8.90
2023-04-02T16:39:32.680Z,8.38
2023-04-02T16:42:48.917Z,8.13
2023-04-02T16:46:08.202Z,8.17
2023-04-02T16:49:46.749Z,8.57
2023-04-02T16:53:02.865Z,8.95
2023-04-02T16:56:12.280Z,8.99
2023-04-02T16:59:22.800Z,8.99
2023-04-02T17:02:40.042Z,8.91
2023-04-02T17:06:20.430Z,8.66
2023-04-02T17:09:40.766Z,8.26
2023-04-02T17:12:47.155Z,7.91
2023-04-02T17:15:53.986Z,7.59
2023-04-02T17:18:58.631Z,7.34
2023-04-02T17:22:03.262Z,7.12
2023-04-02T17:25:07.844Z,6.99
2023-04-02T17:28:15.816Z,6.89
2023-04-02T17:31:23.995Z,6.69
2023-04-02T17:34:25.912Z,6.61
2023-04-02T17:37:56.062Z,6.44
2023-04-02T17:41:37.093Z,6.40
2023-04-02T17:44:55.167Z,6.30
2023-04-02T17:48:20.630Z,6.35
2023-04-02T17:51:48.662Z,6.49
2023-04-02T17:55:04.797Z,6.46
2023-04-02T17:58:16.502Z,6.51
2023-04-02T18:01:28.477Z,6.56
2023-04-02T18:04:49.420Z,6.55
2023-04-02T18:08:12.585Z,6.49
2023-04-02T18:11:20.704Z,6.33
2023-04-02T18:15:02.652Z,6.08
2023-04-02T18:18:33.239Z,5.87
2023-04-02T18:22:06.832Z,5.66
2023-04-02T18:25:19.328Z,5.56
2023-04-02T18:28:48.821Z,5.35
2023-04-02T18:32:03.097Z,5.27
2023-04-02T18:35:41.715Z,5.05
2023-04-02T18:38:52.750Z,4.87
2023-04-02T18:41:54.296Z,4.74
2023-04-02T18:45:20.485Z,4.62
2023-04-02T18:48:33.105Z,4.58
2023-04-02T18:51:38.802Z,4.55
2023-04-02T18:54:48.725Z,4.46
2023-04-02T18:57:57.360Z,4.42
2023-04-02T19:01:03.808Z,4.32
2023-04-02T19:04:20.485Z,4.23
2023-04-02T19:07:22.962Z,4.29
2023-04-02T19:10:35.294Z,4.28
2023-04-02T19:13:37.521Z,4.40
2023-04-02T19:16:59.864Z,4.35
2023-04-02T19:20:10.895Z,4.23
2023-04-02T19:23:32.065Z,4.21
2023-04-02T19:26:44.108Z,4.14
2023-04-02T19:30:04.368Z,4.13
2023-04-02T19:33:31.597Z,4.05
2023-04-02T19:36:46.724Z,3.93
2023-04-02T19:40:22.347Z,3.89
2023-04-02T19:43:27.001Z,3.89
2023-04-02T19:46:28.882Z,3.79
2023-04-02T19:49:34.679Z,3.82
2023-04-02T19:52:38.486Z,3.88
2023-04-02T19:55:41.750Z,3.88
2023-04-02T19:58:44.400Z,3.77
2023-04-02T20:01:47.097Z,3.59
2023-04-02T20:04:48.819Z,3.50
2023-04-02T20:07:50.670Z,3.45
2023-04-02T20:10:52.395Z,3.41
2023-04-02T20:13:54.747Z,3.34
2023-04-02T20:16:56.801Z,3.27
2023-04-02T20:19:58.544Z,3.21
2023-04-02T20:23:00.765Z,3.19
2023-04-02T20:26:04.403Z,3.16
2023-04-02T20:29:06.597Z,3.18
2023-04-02T20:32:09.978Z,3.21
2023-04-02T20:35:11.716Z,3.19
2023-04-02T20:38:13.668Z,3.26
2023-04-02T20:41:16.164Z,3.19
2023-04-02T20:44:17.906Z,3.07
2023-04-02T20:47:22.204Z,3.11
2023-04-02T20:50:24.825Z,3.14
2023-04-02T20:53:29.124Z,3.07
2023-04-02T20:56:31.190Z,3.11
2023-04-02T20:59:32.902Z,3.05
2023-04-02T21:02:36.019Z,2.96
2023-04-02T21:05:46.678Z,2.96
2023-04-02T21:08:49.984Z,2.88
2023-04-02T21:11:51.697Z,2.90
2023-04-02T21:14:58.121Z,2.76
2023-04-02T21:18:01.415Z,2.68
2023-04-02T21:21:05.547Z,2.65
2023-04-02T21:24:09.284Z,2.59
2023-04-02T21:27:11.414Z,2.57
2023-04-02T21:30:13.489Z,2.66
2023-04-02T21:33:17.952Z,2.50
2023-04-02T21:36:23.459Z,2.39
2023-04-02T21:39:25.981Z,2.33
2023-04-02T21:42:27.977Z,2.43
2023-04-02T21:45:29.858Z,2.40
2023-04-02T21:48:31.881Z,2.43
2023-04-02T21:51:35.672Z,2.37
2023-04-02T21:54:37.662Z,2.27
2023-04-02T21:57:39.730Z,2.25
2023-04-02T22:00:41.710Z,2.16
2023-04-02T22:03:43.926Z,2.11
2023-04-02T22:06:46.700Z,2.04
2023-04-02T22:09:48.682Z,1.98
2023-04-02T22:12:50.465Z,1.88
2023-04-02T22:15:52.384Z,1.84
2023-04-02T22:18:56.324Z,1.87
2023-04-02T22:22:01.580Z,1.86
2023-04-02T22:25:03.913Z,1.79
2023-04-02T22:28:06.147Z,1.79
2023-04-02T22:31:12.714Z,1.76
2023-04-02T22:34:14.868Z,1.73
2023-04-02T22:37:16.692Z,1.71
2023-04-02T22:40:18.412Z,1.69
2023-04-02T22:43:20.240Z,1.64
2023-04-02T22:46:22.890Z,1.60
2023-04-02T22:49:24.806Z,1.59
2023-04-02T22:52:26.515Z,1.55
2023-04-02T22:55:28.570Z,1.60
2023-04-02T22:58:30.765Z,1.50
2023-04-02T23:01:35.964Z,1.44
2023-04-02T23:04:37.878Z,1.37
2023-04-02T23:07:39.736Z,1.30
2023-04-02T23:10:41.671Z,1.25
2023-04-02T23:13:44.547Z,1.21
2023-04-02T23:16:46.551Z,1.14
2023-04-02T23:19:48.443Z,1.14
2023-04-02T23:22:50.376Z,1.15
2023-04-02T23:26:08.160Z,1.11
2023-04-02T23:29:11.737Z,1.16
2023-04-02T23:32:13.451Z,1.10
2023-04-02T23:35:15.838Z,1.06
2023-04-02T23:38:17.656Z,0.99
2023-04-02T23:41:19.361Z,0.96
2023-04-02T23:44:21.164Z,0.88
2023-04-02T23:47:23.142Z,0.98
2023-04-02T23:50:25.199Z,0.91
2023-04-02T23:53:27.123Z,0.83
2023-04-02T23:56:28.885Z,0.76
2023-04-02T23:59:30.929Z,0.74
